Time;durP1;ratioP1;P1;durP2;ratioP2;P2;SDS_P1;SDS_P2;PMS_P1;PMS_P2;Temp;Humidity;BMP_temperature;BMP_pressure;BME280_temperature;BME280_humidity;BME280_pressure;Samples;Min_cycle;Max_cycle;Signal;HPM_P1;HPM_P2
2021/12/28 00:00:33;;;;;;;25.07;9.60;;;1.00;99.90;;;;;;5139852;27;20188;-60
2021/12/28 00:02:59;;;;;;;17.10;9.10;;;0.90;99.90;;;;;;5108015;27;20188;-51
2021/12/28 00:05:26;;;;;;;19.70;9.00;;;1.00;99.90;;;;;;5141184;27;20275;-56
2021/12/28 00:07:52;;;;;;;22.70;7.70;;;1.00;99.90;;;;;;5106657;27;20184;-52
2021/12/28 00:10:19;;;;;;;28.83;10.60;;;0.90;99.90;;;;;;5110101;27;20232;-57
2021/12/28 00:12:46;;;;;;;19.67;7.87;;;0.90;99.90;;;;;;5104558;27;20192;-57
2021/12/28 00:17:59;;;;;;;18.47;8.00;;;0.90;99.90;;;;;;5121774;27;20180;-54
2021/12/28 00:20:47;;;;;;;21.13;8.63;;;0.90;99.90;;;;;;5107344;27;20192;-61
2021/12/28 00:23:19;;;;;;;13.03;4.60;;;0.90;99.90;;;;;;5107132;27;20250;-56
2021/12/28 00:25:47;;;;;;;31.13;10.47;;;0.90;99.90;;;;;;5107219;27;20237;-56
2021/12/28 00:28:14;;;;;;;21.13;8.10;;;0.90;99.90;;;;;;5108129;27;20199;-58
2021/12/28 00:30:40;;;;;;;17.63;8.67;;;0.90;99.90;;;;;;5103823;27;20219;-52
2021/12/28 00:33:06;;;;;;;20.27;5.57;;;0.90;99.90;;;;;;5107841;27;20261;-59
2021/12/28 00:35:35;;;;;;;19.97;7.83;;;0.90;99.90;;;;;;5105524;27;20609;-56
2021/12/28 00:38:03;;;;;;;18.23;7.53;;;0.90;99.90;;;;;;5105809;27;20180;-52
2021/12/28 00:40:29;;;;;;;16.23;8.50;;;1.00;99.90;;;;;;5113478;27;20181;-57
2021/12/28 00:42:55;;;;;;;31.40;11.70;;;0.90;99.90;;;;;;5111309;27;20191;-59
2021/12/28 00:45:21;;;;;;;17.80;7.27;;;0.90;99.90;;;;;;5110403;27;20176;-50
2021/12/28 00:47:47;;;;;;;15.13;7.03;;;0.90;99.90;;;;;;5106882;27;20192;-52
2021/12/28 00:50:15;;;;;;;17.70;6.60;;;0.90;99.90;;;;;;5117084;27;20168;-52
2021/12/28 00:52:42;;;;;;;27.07;8.40;;;0.90;99.90;;;;;;5115753;27;20232;-52
2021/12/28 00:55:10;;;;;;;13.90;8.33;;;0.90;99.90;;;;;;5117259;27;20231;-55
2021/12/28 00:57:35;;;;;;;26.37;9.27;;;0.90;99.90;;;;;;5114828;27;20283;-58
2021/12/28 01:00:05;;;;;;;18.30;6.80;;;0.90;99.90;;;;;;5112583;27;20180;-53
2021/12/28 01:02:30;;;;;;;22.10;8.97;;;0.90;99.90;;;;;;5118343;27;20274;-60
2021/12/28 01:04:56;;;;;;;16.80;8.83;;;0.80;99.90;;;;;;5112165;27;20262;-60
2021/12/28 01:07:22;;;;;;;15.00;8.07;;;0.80;99.90;;;;;;5115091;27;20184;-61
2021/12/28 01:09:48;;;;;;;21.70;6.70;;;0.70;99.90;;;;;;5114462;27;20180;-62
2021/12/28 01:12:14;;;;;;;13.33;6.37;;;0.80;99.90;;;;;;5116265;27;20286;-62
2021/12/28 01:14:40;;;;;;;21.77;8.73;;;0.80;99.90;;;;;;5114050;27;20598;-59
2021/12/28 01:17:06;;;;;;;15.77;6.43;;;0.70;99.90;;;;;;5116429;27;20271;-55
2021/12/28 01:19:32;;;;;;;11.17;5.87;;;0.70;99.90;;;;;;5118851;27;20207;-59
2021/12/28 01:22:01;;;;;;;17.47;6.10;;;0.80;99.90;;;;;;5108064;27;20185;-62
2021/12/28 01:24:28;;;;;;;18.20;7.17;;;0.80;99.90;;;;;;5132809;27;20203;-50
2021/12/28 01:26:53;;;;;;;9.77;6.00;;;0.70;99.90;;;;;;5113010;27;20195;-58
2021/12/28 01:29:19;;;;;;;11.67;5.43;;;0.70;99.90;;;;;;5116663;27;20184;-57
2021/12/28 01:31:45;;;;;;;17.23;5.43;;;0.70;99.90;;;;;;5113006;27;20239;-65
2021/12/28 01:34:11;;;;;;;12.23;5.13;;;0.70;99.90;;;;;;5115926;27;20172;-62
2021/12/28 01:36:37;;;;;;;9.70;5.40;;;0.70;99.90;;;;;;5113947;27;20228;-64
2021/12/28 01:39:05;;;;;;;7.47;3.23;;;0.70;99.90;;;;;;5109749;27;20177;-60
2021/12/28 01:41:31;;;;;;;15.97;8.13;;;0.60;99.90;;;;;;5117156;27;20179;-64
2021/12/28 01:44:04;;;;;;;11.37;5.67;;;0.60;99.90;;;;;;5116613;27;20184;-62
2021/12/28 01:46:31;;;;;;;20.10;7.20;;;0.60;99.90;;;;;;5113729;27;20256;-50
2021/12/28 01:48:57;;;;;;;9.97;3.73;;;0.60;99.90;;;;;;5116510;27;20172;-65
2021/12/28 01:51:23;;;;;;;6.87;4.63;;;0.60;99.90;;;;;;5115405;27;20246;-65
2021/12/28 01:53:52;;;;;;;13.47;5.13;;;0.60;99.90;;;;;;5115497;27;20183;-64
2021/12/28 01:56:22;;;;;;;14.50;6.33;;;0.60;99.90;;;;;;5111574;27;20191;-60
2021/12/28 01:58:49;;;;;;;6.23;5.00;;;0.60;99.90;;;;;;5116290;27;20188;-64
2021/12/28 02:01:16;;;;;;;15.40;4.10;;;0.60;99.90;;;;;;5116281;27;20180;-64
2021/12/28 02:03:43;;;;;;;10.73;5.23;;;0.70;99.90;;;;;;5115485;27;20208;-58
2021/12/28 02:06:10;;;;;;;15.50;5.87;;;0.70;99.90;;;;;;5118165;27;20275;-64
2021/12/28 02:08:36;;;;;;;9.50;5.20;;;0.70;99.90;;;;;;5118253;27;20302;-59
2021/12/28 02:11:03;;;;;;;6.23;4.33;;;0.70;99.90;;;;;;5116037;27;20208;-60
2021/12/28 02:13:29;;;;;;;10.97;5.07;;;0.70;99.90;;;;;;5115192;27;20184;-61
2021/12/28 02:15:56;;;;;;;17.10;6.30;;;0.70;99.90;;;;;;5116203;27;20184;-58
2021/12/28 02:18:25;;;;;;;12.23;5.97;;;0.70;99.90;;;;;;5114080;27;20187;-56
2021/12/28 02:20:51;;;;;;;15.30;5.77;;;0.60;99.90;;;;;;5115794;27;20188;-59
2021/12/28 02:23:18;;;;;;;10.00;4.83;;;0.70;99.90;;;;;;5112258;27;20176;-58
2021/12/28 02:25:44;;;;;;;15.40;5.27;;;0.70;99.90;;;;;;5116974;27;20183;-56
2021/12/28 02:28:11;;;;;;;12.20;6.13;;;0.70;99.90;;;;;;5115024;27;20168;-59
2021/12/28 02:30:39;;;;;;;10.13;4.00;;;0.60;99.90;;;;;;5114251;27;20215;-57
2021/12/28 02:33:06;;;;;;;10.77;5.37;;;0.70;99.90;;;;;;5114219;27;20184;-59
2021/12/28 02:35:33;;;;;;;6.87;4.67;;;0.70;99.90;;;;;;5115176;27;20191;-61
2021/12/28 02:37:59;;;;;;;11.33;5.40;;;0.80;99.90;;;;;;5118979;27;20179;-58
2021/12/28 02:40:28;;;;;;;16.07;4.23;;;0.70;99.90;;;;;;5114179;27;20184;-60
2021/12/28 02:42:55;;;;;;;11.60;4.53;;;0.70;99.90;;;;;;5119399;27;20206;-60
2021/12/28 02:45:25;;;;;;;7.63;4.43;;;0.70;99.90;;;;;;5117698;27;20188;-58
2021/12/28 02:47:51;;;;;;;7.40;3.97;;;0.70;99.90;;;;;;5114651;27;20189;-59
2021/12/28 02:50:24;;;;;;;6.17;3.97;;;0.80;99.90;;;;;;5119012;27;20176;-65
2021/12/28 02:52:50;;;;;;;14.10;4.77;;;0.80;99.90;;;;;;5112793;27;20195;-63
2021/12/28 02:55:19;;;;;;;6.53;4.13;;;0.70;99.90;;;;;;5119153;27;20250;-61
2021/12/28 02:57:48;;;;;;;5.70;3.10;;;0.80;99.90;;;;;;5114449;27;20180;-64
2021/12/28 03:00:14;;;;;;;7.63;3.60;;;0.80;99.90;;;;;;5119747;27;20198;-58
2021/12/28 03:02:40;;;;;;;8.40;4.53;;;0.80;99.90;;;;;;5117964;27;20213;-60
2021/12/28 03:05:06;;;;;;;16.83;5.13;;;0.80;99.90;;;;;;5119624;27;20256;-64
2021/12/28 03:07:32;;;;;;;11.07;6.10;;;0.80;99.90;;;;;;5117822;27;20192;-65
2021/12/28 03:09:58;;;;;;;13.53;4.93;;;0.80;99.90;;;;;;5115772;27;20172;-61
2021/12/28 03:12:24;;;;;;;5.60;4.00;;;0.90;99.90;;;;;;5120387;27;20203;-62
2021/12/28 03:14:49;;;;;;;8.50;4.07;;;0.80;99.90;;;;;;5114225;27;20202;-63
2021/12/28 03:17:16;;;;;;;5.40;4.37;;;0.90;99.90;;;;;;5119238;27;20236;-57
2021/12/28 03:19:42;;;;;;;14.73;5.33;;;0.90;99.90;;;;;;5116758;27;20192;-55
2021/12/28 03:22:08;;;;;;;5.53;4.10;;;0.90;99.90;;;;;;5118008;27;20185;-60
2021/12/28 03:24:33;;;;;;;10.60;5.63;;;0.90;99.90;;;;;;5117106;27;20179;-65
2021/12/28 03:27:00;;;;;;;6.63;3.47;;;0.80;99.90;;;;;;5118117;27;20173;-58
2021/12/28 03:29:26;;;;;;;6.00;4.37;;;0.80;99.90;;;;;;5120005;27;20230;-58
2021/12/28 03:31:52;;;;;;;9.50;4.53;;;0.90;99.90;;;;;;5113017;27;20298;-57
2021/12/28 03:34:18;;;;;;;9.33;4.37;;;0.80;99.90;;;;;;5122747;27;20184;-60
2021/12/28 03:36:46;;;;;;;5.80;5.10;;;0.90;99.90;;;;;;5113763;27;20199;-59
2021/12/28 03:39:12;;;;;;;6.97;4.37;;;0.90;99.90;;;;;;5118730;27;20262;-62
2021/12/28 03:41:39;;;;;;;9.67;5.83;;;0.90;99.90;;;;;;5116625;27;20264;-64
2021/12/28 03:44:05;;;;;;;11.83;5.63;;;0.90;99.90;;;;;;5115854;27;20176;-51
2021/12/28 03:46:31;;;;;;;10.27;5.83;;;0.90;99.90;;;;;;5115998;27;20176;-62
2021/12/28 03:48:57;;;;;;;11.33;5.67;;;0.90;99.90;;;;;;5117939;27;20172;-57
2021/12/28 03:51:23;;;;;;;17.33;6.67;;;0.90;99.90;;;;;;5117584;27;20219;-62
2021/12/28 03:53:50;;;;;;;13.60;6.97;;;0.90;99.90;;;;;;5115701;27;20184;-62
2021/12/28 03:56:17;;;;;;;13.87;5.93;;;0.90;99.90;;;;;;5119016;27;20176;-62
2021/12/28 03:58:43;;;;;;;12.07;5.80;;;0.90;99.90;;;;;;5113919;27;20188;-55
2021/12/28 04:01:12;;;;;;;13.50;6.17;;;0.90;99.90;;;;;;5118757;27;20187;-63
2021/12/28 04:03:38;;;;;;;17.37;6.73;;;0.90;99.90;;;;;;5116384;27;20229;-57
2021/12/28 04:06:08;;;;;;;15.67;7.50;;;0.90;99.90;;;;;;5115223;27;20188;-63
2021/12/28 04:08:35;;;;;;;14.03;7.37;;;0.90;99.90;;;;;;5118161;27;20189;-62
2021/12/28 04:11:13;;;;;;;13.37;7.37;;;0.90;99.90;;;;;;5112539;27;20208;-57
2021/12/28 04:13:40;;;;;;;16.43;6.57;;;0.90;99.90;;;;;;5134700;27;20184;-54
2021/12/28 04:16:06;;;;;;;9.03;6.13;;;1.00;99.90;;;;;;5116822;27;20185;-53
2021/12/28 04:18:32;;;;;;;25.07;6.70;;;1.00;99.90;;;;;;5118957;27;20181;-60
2021/12/28 04:20:57;;;;;;;19.23;7.10;;;1.00;99.90;;;;;;5115357;27;20184;-57
2021/12/28 04:23:23;;;;;;;7.43;4.87;;;1.00;99.90;;;;;;5116734;27;20199;-54
2021/12/28 04:25:49;;;;;;;17.77;6.07;;;0.90;99.90;;;;;;5116395;27;20176;-59
2021/12/28 04:28:15;;;;;;;13.27;7.33;;;1.00;99.90;;;;;;5113321;27;20217;-54
2021/12/28 04:30:41;;;;;;;21.87;5.83;;;1.00;99.90;;;;;;5116558;27;20219;-61
2021/12/28 04:33:08;;;;;;;11.67;6.40;;;1.10;99.90;;;;;;5115657;27;20187;-57
2021/12/28 04:35:34;;;;;;;16.33;7.17;;;1.00;99.90;;;;;;5120819;27;20275;-56
2021/12/28 04:38:00;;;;;;;9.90;4.70;;;1.00;99.90;;;;;;5114812;27;20261;-62
2021/12/28 04:40:26;;;;;;;10.50;7.47;;;1.00;99.90;;;;;;5117522;27;20191;-54
2021/12/28 04:42:52;;;;;;;14.43;7.77;;;1.00;99.90;;;;;;5115141;27;20176;-63
2021/12/28 04:45:18;;;;;;;10.40;6.73;;;1.00;99.90;;;;;;5113713;27;20184;-63
2021/12/28 04:47:44;;;;;;;7.17;6.07;;;1.00;99.90;;;;;;5118207;27;20191;-61
2021/12/28 04:50:11;;;;;;;14.70;6.43;;;1.00;99.90;;;;;;5111605;27;20184;-57
2021/12/28 04:52:39;;;;;;;15.27;6.13;;;1.00;99.90;;;;;;5117936;27;20184;-54
2021/12/28 04:55:10;;;;;;;19.77;8.30;;;1.00;99.90;;;;;;5112831;27;20224;-62
2021/12/28 04:57:36;;;;;;;12.27;5.77;;;1.00;99.90;;;;;;5116263;27;20191;-60
2021/12/28 05:00:05;;;;;;;11.20;5.63;;;1.00;99.90;;;;;;5114627;27;20172;-51
2021/12/28 05:02:32;;;;;;;28.83;13.93;;;1.00;99.90;;;;;;5129296;27;20208;-56
2021/12/28 05:04:58;;;;;;;16.20;9.07;;;1.20;99.90;;;;;;5119512;27;20171;-61
2021/12/28 05:07:23;;;;;;;14.30;7.40;;;1.30;99.90;;;;;;5111886;27;20212;-61
2021/12/28 05:09:49;;;;;;;13.67;5.20;;;1.20;99.90;;;;;;5117970;27;20180;-58
2021/12/28 05:12:15;;;;;;;17.30;6.73;;;1.10;99.90;;;;;;5113515;27;20208;-61
2021/12/28 05:14:42;;;;;;;15.50;6.73;;;1.20;99.90;;;;;;5115186;27;20197;-52
2021/12/28 05:17:09;;;;;;;11.07;5.73;;;1.10;99.90;;;;;;5115730;27;20236;-64
2021/12/28 05:19:35;;;;;;;14.30;6.27;;;1.10;99.90;;;;;;5114959;27;20184;-53
2021/12/28 05:22:01;;;;;;;20.63;5.97;;;1.10;99.90;;;;;;5113223;27;20193;-61
2021/12/28 05:24:27;;;;;;;17.70;7.00;;;1.10;99.90;;;;;;5114508;27;20195;-54
2021/12/28 05:26:53;;;;;;;15.53;6.07;;;1.20;99.90;;;;;;5116906;27;20181;-58
2021/12/28 05:29:19;;;;;;;21.27;6.60;;;1.20;99.90;;;;;;5114623;27;20267;-63
2021/12/28 05:31:45;;;;;;;7.17;6.20;;;1.00;99.90;;;;;;5114580;27;20201;-54
2021/12/28 05:34:11;;;;;;;9.23;5.33;;;1.10;99.90;;;;;;5114541;27;20175;-55
2021/12/28 05:36:37;;;;;;;25.27;7.93;;;1.10;99.90;;;;;;5113922;27;20187;-56
2021/12/28 05:39:05;;;;;;;13.33;5.70;;;1.10;99.90;;;;;;5116096;27;20173;-61
2021/12/28 05:41:31;;;;;;;25.07;6.67;;;1.00;99.90;;;;;;5110546;27;20180;-53
2021/12/28 05:43:57;;;;;;;17.70;6.30;;;1.00;99.90;;;;;;5116880;27;20176;-55
2021/12/28 05:46:22;;;;;;;24.00;7.30;;;1.00;99.90;;;;;;5110981;28;20180;-60
2021/12/28 05:48:48;;;;;;;18.33;7.83;;;1.00;99.90;;;;;;5132634;27;20172;-58
2021/12/28 05:51:15;;;;;;;16.30;6.67;;;1.00;99.90;;;;;;5112303;27;20211;-57
2021/12/28 05:53:42;;;;;;;17.60;6.77;;;0.90;99.90;;;;;;5117619;27;20279;-55
2021/12/28 05:56:08;;;;;;;13.10;5.90;;;0.90;99.90;;;;;;5114034;27;20220;-60
2021/12/28 05:58:33;;;;;;;16.03;6.60;;;1.00;99.90;;;;;;5115355;27;20180;-57
2021/12/28 06:01:00;;;;;;;10.07;4.77;;;0.90;99.90;;;;;;5116864;27;20188;-59
2021/12/28 06:03:25;;;;;;;18.37;6.73;;;0.90;99.90;;;;;;5112650;27;20181;-63
2021/12/28 06:05:51;;;;;;;19.97;7.63;;;0.90;99.90;;;;;;5118317;27;20229;-59
2021/12/28 06:08:17;;;;;;;11.63;5.47;;;1.00;99.90;;;;;;5111641;27;20172;-58
2021/12/28 06:10:43;;;;;;;11.50;6.10;;;1.00;99.90;;;;;;5120811;27;20212;-63
2021/12/28 06:13:09;;;;;;;10.63;6.90;;;0.90;99.90;;;;;;5117268;27;20176;-63
2021/12/28 06:15:34;;;;;;;14.40;7.03;;;0.90;99.90;;;;;;5119508;27;20205;-50
2021/12/28 06:18:00;;;;;;;18.53;7.53;;;0.90;99.90;;;;;;5119730;27;20196;-59
2021/12/28 06:20:26;;;;;;;18.47;7.57;;;0.90;99.90;;;;;;5116822;27;20245;-62
2021/12/28 06:22:52;;;;;;;15.00;7.83;;;1.00;99.90;;;;;;5122121;27;20177;-57
2021/12/28 06:25:17;;;;;;;20.87;7.67;;;0.90;99.90;;;;;;5115123;27;20211;-63
2021/12/28 06:27:43;;;;;;;14.73;8.40;;;0.90;99.90;;;;;;5119182;27;20180;-62
2021/12/28 06:30:10;;;;;;;18.27;6.77;;;0.90;99.90;;;;;;5114670;27;20209;-61
2021/12/28 06:32:35;;;;;;;12.87;6.70;;;0.90;99.90;;;;;;5115768;27;20188;-57
2021/12/28 06:35:02;;;;;;;16.00;6.37;;;1.00;99.90;;;;;;5108256;27;20200;-59
2021/12/28 06:37:27;;;;;;;17.07;6.87;;;1.00;99.90;;;;;;5108531;27;20189;-57
2021/12/28 06:39:53;;;;;;;29.77;10.60;;;1.00;99.90;;;;;;5110345;27;20215;-62
2021/12/28 06:42:19;;;;;;;13.83;7.30;;;1.00;99.90;;;;;;5107164;27;20200;-59
2021/12/28 06:44:47;;;;;;;22.80;9.03;;;0.90;99.90;;;;;;5110855;27;20169;-61
2021/12/28 06:47:13;;;;;;;13.63;7.73;;;0.90;99.90;;;;;;5106121;27;20176;-62
2021/12/28 06:49:39;;;;;;;16.57;6.50;;;0.90;99.90;;;;;;5113394;27;20624;-60
2021/12/28 06:52:06;;;;;;;18.30;8.67;;;0.80;99.90;;;;;;5131935;27;20208;-62
2021/12/28 06:54:36;;;;;;;11.20;7.43;;;0.90;99.90;;;;;;5120927;27;20226;-56
2021/12/28 06:57:08;;;;;;;19.23;5.97;;;0.90;99.90;;;;;;5120819;27;20188;-61
2021/12/28 06:59:43;;;;;;;8.00;5.80;;;0.90;99.90;;;;;;5114521;27;20168;-62
2021/12/28 07:02:13;;;;;;;15.97;7.47;;;0.90;99.90;;;;;;5111032;27;20565;-54
2021/12/28 07:04:39;;;;;;;19.70;9.40;;;0.90;99.90;;;;;;5106472;27;20187;-58
2021/12/28 07:07:05;;;;;;;18.57;7.93;;;0.90;99.90;;;;;;5110863;27;20222;-56
2021/12/28 07:09:32;;;;;;;12.43;7.63;;;0.90;99.90;;;;;;5107640;27;20181;-56
2021/12/28 07:11:58;;;;;;;15.53;6.17;;;0.90;99.90;;;;;;5108849;27;20212;-56
2021/12/28 07:14:24;;;;;;;19.30;9.27;;;0.90;99.90;;;;;;5108714;27;20203;-62
2021/12/28 07:16:50;;;;;;;14.50;7.43;;;0.90;99.90;;;;;;5107715;27;20177;-62
2021/12/28 07:19:15;;;;;;;11.17;5.37;;;0.90;99.90;;;;;;5110457;27;20223;-60
2021/12/28 07:21:42;;;;;;;18.07;7.30;;;0.90;99.90;;;;;;5104851;27;20177;-59
2021/12/28 07:24:09;;;;;;;13.50;7.20;;;0.90;99.90;;;;;;5110175;27;20278;-60
2021/12/28 07:26:36;;;;;;;18.90;8.50;;;0.90;99.90;;;;;;5106842;27;20184;-57
2021/12/28 07:29:03;;;;;;;14.93;6.80;;;0.90;99.90;;;;;;5109120;27;20211;-59
2021/12/28 07:31:29;;;;;;;11.43;5.67;;;0.90;99.90;;;;;;5106680;27;20211;-60
2021/12/28 07:33:55;;;;;;;15.70;7.40;;;0.90;99.90;;;;;;5107692;27;20176;-55
2021/12/28 07:36:21;;;;;;;16.70;6.80;;;0.90;99.90;;;;;;5112646;27;20275;-58
2021/12/28 07:38:47;;;;;;;17.10;8.73;;;1.00;99.90;;;;;;5105789;27;20185;-63
2021/12/28 07:41:13;;;;;;;12.03;7.13;;;1.00;99.90;;;;;;5110289;27;20184;-61
2021/12/28 07:43:39;;;;;;;16.87;8.17;;;1.00;99.90;;;;;;5106371;27;20184;-61
2021/12/28 07:46:05;;;;;;;24.73;6.70;;;1.00;99.90;;;;;;5109785;27;20188;-58
2021/12/28 07:48:31;;;;;;;9.97;7.23;;;1.00;99.90;;;;;;5095532;27;20230;-56
2021/12/28 07:50:57;;;;;;;18.90;7.07;;;1.00;99.90;;;;;;5088039;27;20260;-62
2021/12/28 07:53:23;;;;;;;23.07;8.43;;;0.90;99.90;;;;;;5088459;28;20276;-64
2021/12/28 07:55:49;;;;;;;21.40;8.20;;;0.90;99.90;;;;;;5086493;28;20228;-55
2021/12/28 07:58:15;;;;;;;18.50;6.87;;;0.90;99.90;;;;;;5089563;28;20257;-59
2021/12/28 08:00:42;;;;;;;18.77;9.50;;;0.90;99.90;;;;;;5085158;28;20181;-58
2021/12/28 08:03:08;;;;;;;17.37;5.33;;;0.90;99.90;;;;;;5089311;28;20189;-61
2021/12/28 08:05:35;;;;;;;14.77;7.73;;;0.90;99.90;;;;;;5086315;28;20185;-57
2021/12/28 08:08:01;;;;;;;22.47;6.70;;;1.00;99.90;;;;;;5098241;27;20276;-52
2021/12/28 08:10:28;;;;;;;7.97;4.50;;;1.00;99.90;;;;;;5106561;27;20225;-60
2021/12/28 08:12:56;;;;;;;13.20;5.40;;;1.00;99.90;;;;;;5106913;27;20192;-53
2021/12/28 08:15:24;;;;;;;18.70;7.33;;;1.00;99.90;;;;;;5109569;27;20193;-59
2021/12/28 08:17:50;;;;;;;6.53;5.90;;;1.00;99.90;;;;;;5105655;27;20189;-54
2021/12/28 08:20:17;;;;;;;18.73;7.67;;;1.00;99.90;;;;;;5109370;27;20629;-53
2021/12/28 08:22:44;;;;;;;11.93;6.13;;;0.90;99.90;;;;;;5105006;27;20287;-57
2021/12/28 08:25:12;;;;;;;11.20;5.23;;;1.00;99.90;;;;;;5108442;27;20181;-57
2021/12/28 08:27:38;;;;;;;18.53;7.77;;;1.00;99.90;;;;;;5106759;27;20177;-64
2021/12/28 08:30:06;;;;;;;15.03;6.17;;;0.90;99.90;;;;;;5107052;27;20190;-63
2021/12/28 08:32:32;;;;;;;7.80;4.70;;;1.00;99.90;;;;;;5107816;27;20208;-69
2021/12/28 08:34:57;;;;;;;6.47;5.23;;;1.10;99.90;;;;;;5105743;27;20193;-67
2021/12/28 08:37:23;;;;;;;16.90;7.57;;;1.00;99.90;;;;;;5109013;27;20184;-62
2021/12/28 08:39:49;;;;;;;9.63;5.83;;;1.10;99.90;;;;;;5104441;27;20216;-67
2021/12/28 08:42:16;;;;;;;12.17;6.03;;;1.10;99.90;;;;;;5108175;27;20188;-63
2021/12/28 08:44:42;;;;;;;7.50;4.40;;;1.10;99.90;;;;;;5105933;27;20207;-63
2021/12/28 08:47:08;;;;;;;16.07;6.93;;;1.10;99.90;;;;;;5107377;27;20223;-62
2021/12/28 08:49:34;;;;;;;9.13;6.30;;;1.10;99.90;;;;;;5107099;27;20280;-65
2021/12/28 08:52:00;;;;;;;10.03;4.97;;;1.10;99.90;;;;;;5106069;27;20216;-63
2021/12/28 08:54:26;;;;;;;14.43;5.90;;;1.20;99.90;;;;;;5108416;27;20247;-62
2021/12/28 08:56:52;;;;;;;12.47;7.57;;;1.20;99.90;;;;;;5104748;27;20303;-62
2021/12/28 08:59:19;;;;;;;6.77;4.43;;;1.10;99.90;;;;;;5108538;27;20184;-67
2021/12/28 09:01:46;;;;;;;12.43;6.13;;;1.20;99.90;;;;;;5104878;27;20224;-62
2021/12/28 09:04:12;;;;;;;6.50;3.77;;;1.30;99.90;;;;;;5107724;27;20191;-62
2021/12/28 09:06:38;;;;;;;15.73;5.10;;;1.20;99.90;;;;;;5106966;27;20271;-66
2021/12/28 09:09:04;;;;;;;16.63;5.47;;;1.20;99.90;;;;;;5106539;27;20181;-65
2021/12/28 09:11:30;;;;;;;14.70;5.27;;;1.30;99.90;;;;;;5107147;27;20234;-66
2021/12/28 09:13:56;;;;;;;7.73;4.37;;;1.40;99.90;;;;;;5104814;27;20184;-64
2021/12/28 09:16:23;;;;;;;11.17;5.40;;;1.40;99.90;;;;;;5108057;27;20185;-64
2021/12/28 09:18:49;;;;;;;14.47;4.13;;;1.40;99.90;;;;;;5103868;28;20268;-62
2021/12/28 09:21:15;;;;;;;7.63;4.90;;;1.50;99.90;;;;;;5107344;27;20279;-65
2021/12/28 09:23:41;;;;;;;8.17;4.23;;;1.50;99.90;;;;;;5104780;27;20189;-66
2021/12/28 09:26:07;;;;;;;8.13;4.37;;;1.50;99.90;;;;;;5101472;27;20195;-63
2021/12/28 09:28:33;;;;;;;9.17;4.27;;;1.50;99.90;;;;;;5106994;27;20275;-63
2021/12/28 09:31:00;;;;;;;7.27;4.93;;;1.40;99.90;;;;;;5104812;28;20211;-61
2021/12/28 09:33:25;;;;;;;9.10;4.03;;;1.50;99.90;;;;;;5107760;28;20222;-64
2021/12/28 09:35:52;;;;;;;8.60;4.50;;;1.50;99.90;;;;;;5104329;28;20184;-62
2021/12/28 09:38:20;;;;;;;8.67;4.57;;;1.50;99.90;;;;;;5107122;28;20184;-64
2021/12/28 09:40:47;;;;;;;8.50;5.47;;;1.50;99.90;;;;;;5104173;28;20189;-55
2021/12/28 09:43:14;;;;;;;12.40;4.27;;;1.50;99.90;;;;;;5107602;27;20196;-57
2021/12/28 09:45:40;;;;;;;4.87;3.73;;;1.50;99.90;;;;;;5109282;27;20188;-60
2021/12/28 09:48:08;;;;;;;9.27;4.00;;;1.50;99.90;;;;;;5110106;27;20184;-50
2021/12/28 09:50:35;;;;;;;8.17;4.10;;;1.40;99.90;;;;;;5111473;27;20196;-51
2021/12/28 09:53:02;;;;;;;11.43;4.33;;;1.40;99.90;;;;;;5108206;27;20184;-59
2021/12/28 09:55:29;;;;;;;10.23;4.83;;;1.50;99.90;;;;;;5111334;27;20224;-54
2021/12/28 09:57:56;;;;;;;9.23;4.97;;;1.60;99.90;;;;;;5107944;27;20169;-50
2021/12/28 10:00:22;;;;;;;11.33;5.20;;;1.60;99.90;;;;;;5111388;27;20189;-52
2021/12/28 10:02:49;;;;;;;8.37;5.20;;;1.70;99.90;;;;;;5108719;27;20176;-52
2021/12/28 10:05:19;;;;;;;10.40;4.57;;;1.70;99.90;;;;;;5127138;27;20204;-52
2021/12/28 10:08:05;;;;;;;10.40;5.07;;;1.60;99.90;;;;;;5091699;28;20197;-55
2021/12/28 10:10:43;;;;;;;7.97;4.87;;;1.70;99.90;;;;;;5106556;27;20208;-52
2021/12/28 10:13:21;;;;;;;10.90;5.17;;;1.60;99.90;;;;;;5111216;27;20176;-52
2021/12/28 10:15:49;;;;;;;6.60;5.23;;;1.70;99.90;;;;;;5108776;27;20280;-55
2021/12/28 10:18:16;;;;;;;11.37;5.70;;;1.70;99.90;;;;;;5109578;27;20191;-53
2021/12/28 10:20:43;;;;;;;12.57;5.97;;;1.70;99.90;;;;;;5110390;27;20172;-59
2021/12/28 10:23:13;;;;;;;16.30;7.53;;;1.70;99.90;;;;;;5107199;27;20192;-52
2021/12/28 10:25:42;;;;;;;15.17;7.83;;;1.70;99.90;;;;;;5110895;27;20177;-57
2021/12/28 10:28:14;;;;;;;13.10;6.03;;;1.80;99.90;;;;;;5108439;27;20196;-58
2021/12/28 10:30:46;;;;;;;10.77;6.90;;;1.80;99.90;;;;;;5111077;27;20208;-57
2021/12/28 10:33:16;;;;;;;13.50;6.20;;;1.80;99.90;;;;;;5123391;27;20193;-57
2021/12/28 10:35:45;;;;;;;19.87;6.93;;;1.90;99.90;;;;;;5108884;27;20181;-60
2021/12/28 10:38:15;;;;;;;11.90;5.63;;;1.90;99.90;;;;;;5110708;27;20196;-60
2021/12/28 10:40:49;;;;;;;16.07;6.93;;;2.00;99.90;;;;;;5107130;27;20184;-59
2021/12/28 10:43:18;;;;;;;11.40;5.97;;;2.00;99.90;;;;;;5111085;27;20184;-62
2021/12/28 10:45:54;;;;;;;13.07;7.60;;;2.10;99.90;;;;;;5107509;27;20237;-60
2021/12/28 10:48:25;;;;;;;11.43;6.27;;;2.00;99.90;;;;;;5110144;27;20337;-59
2021/12/28 10:51:02;;;;;;;13.67;5.97;;;2.00;99.90;;;;;;5109172;27;20258;-60
2021/12/28 10:53:37;;;;;;;13.60;6.63;;;2.00;99.90;;;;;;5108016;27;20248;-60
2021/12/28 10:56:07;;;;;;;11.43;6.20;;;2.00;99.90;;;;;;5111029;27;20313;-60
2021/12/28 10:58:33;;;;;;;16.93;7.37;;;2.10;99.90;;;;;;5106349;27;20236;-60
2021/12/28 11:01:06;;;;;;;8.47;5.47;;;2.10;99.90;;;;;;5104760;28;20284;-63
2021/12/28 11:03:35;;;;;;;12.80;7.03;;;2.10;99.90;;;;;;5100909;27;20196;-61
2021/12/28 11:06:06;;;;;;;13.90;6.63;;;2.20;99.90;;;;;;5104214;27;20210;-60
2021/12/28 11:08:34;;;;;;;14.97;7.10;;;2.30;99.90;;;;;;5122592;27;20229;-61
2021/12/28 11:11:06;;;;;;;10.30;5.90;;;2.30;99.90;;;;;;5106871;27;20223;-61
2021/12/28 11:13:32;;;;;;;12.70;7.63;;;2.30;99.90;;;;;;5127299;27;20189;-64
2021/12/28 11:16:01;;;;;;;15.23;6.87;;;2.40;99.90;;;;;;5124082;27;20188;-64
2021/12/28 11:18:35;;;;;;;15.87;6.87;;;2.30;99.90;;;;;;5127263;27;20189;-61
2021/12/28 11:21:29;;;;;;;12.17;5.50;;;2.40;99.90;;;;;;5126275;27;20265;-63
2021/12/28 11:24:03;;;;;;;10.93;7.73;;;2.40;99.90;;;;;;5100037;27;20200;-66
2021/12/28 11:26:42;;;;;;;9.17;5.00;;;2.40;99.90;;;;;;5103119;27;20187;-62
2021/12/28 11:29:23;;;;;;;13.73;5.17;;;2.30;99.90;;;;;;5109632;27;20192;-64
2021/12/28 11:31:59;;;;;;;16.73;5.73;;;2.30;99.90;;;;;;5120225;27;20221;-60
2021/12/28 11:34:32;;;;;;;17.33;8.27;;;2.20;99.90;;;;;;5109356;27;20192;-62
2021/12/28 11:37:01;;;;;;;11.07;8.07;;;2.20;99.90;;;;;;5104388;27;20209;-56
2021/12/28 11:39:38;;;;;;;15.83;6.07;;;2.20;99.90;;;;;;5096322;27;20192;-51
2021/12/28 11:42:04;;;;;;;15.67;6.63;;;2.20;99.90;;;;;;5097884;27;20277;-58
2021/12/28 11:44:32;;;;;;;14.63;7.93;;;2.20;99.90;;;;;;5105587;28;20189;-55
2021/12/28 11:47:00;;;;;;;13.03;8.40;;;2.30;99.90;;;;;;5104958;28;20184;-51
2021/12/28 11:49:28;;;;;;;16.27;7.00;;;2.10;99.90;;;;;;5104076;28;20198;-55
2021/12/28 11:52:05;;;;;;;14.40;7.47;;;2.20;99.90;;;;;;5118710;27;20204;-54
2021/12/28 11:54:40;;;;;;;12.90;7.30;;;2.20;99.90;;;;;;5105942;27;20230;-54
2021/12/28 11:57:13;;;;;;;14.20;7.50;;;2.30;99.90;;;;;;5120092;27;20278;-56
2021/12/28 11:59:40;;;;;;;13.73;6.03;;;2.30;99.90;;;;;;5124047;27;20185;-58
2021/12/28 12:02:11;;;;;;;10.20;6.13;;;2.30;99.90;;;;;;5123347;27;20189;-59
2021/12/28 12:04:47;;;;;;;8.50;5.03;;;2.30;99.90;;;;;;5103674;28;20185;-56
2021/12/28 12:07:16;;;;;;;13.03;7.63;;;2.30;99.90;;;;;;5093166;27;20185;-54
2021/12/28 12:09:54;;;;;;;15.07;7.03;;;2.40;99.90;;;;;;5107213;27;20196;-54
2021/12/28 12:12:27;;;;;;;13.73;6.67;;;2.40;99.90;;;;;;5096747;28;20217;-54
2021/12/28 12:15:00;;;;;;;7.90;5.73;;;2.40;99.90;;;;;;5100298;28;20204;-59
2021/12/28 12:17:38;;;;;;;10.53;5.73;;;2.30;99.90;;;;;;5104556;28;20238;-60
2021/12/28 12:20:08;;;;;;;12.67;7.10;;;2.30;99.90;;;;;;5117925;27;20196;-63
2021/12/28 12:22:39;;;;;;;20.23;6.17;;;2.40;99.90;;;;;;5095316;28;20185;-63
2021/12/28 12:25:11;;;;;;;11.37;6.53;;;2.30;99.90;;;;;;5098083;27;20197;-59
2021/12/28 12:27:46;;;;;;;20.20;7.47;;;2.30;99.90;;;;;;5106508;27;20198;-60
2021/12/28 12:30:18;;;;;;;17.03;7.73;;;2.40;99.90;;;;;;5105067;27;20184;-63
2021/12/28 12:32:58;;;;;;;11.60;7.30;;;2.40;99.90;;;;;;5104972;27;20289;-57
2021/12/28 12:35:40;;;;;;;16.63;8.43;;;2.40;99.90;;;;;;5105848;27;20188;-58
2021/12/28 12:38:12;;;;;;;10.17;6.13;;;2.40;99.90;;;;;;5101179;28;20234;-59
2021/12/28 12:40:59;;;;;;;10.90;6.60;;;2.40;99.90;;;;;;5092191;28;20181;-62
2021/12/28 12:43:41;;;;;;;11.23;5.43;;;2.50;99.90;;;;;;5091841;27;20185;-64
2021/12/28 12:46:23;;;;;;;10.40;5.57;;;2.50;99.90;;;;;;5099744;27;20212;-58
2021/12/28 12:48:52;;;;;;;18.67;8.40;;;2.40;99.90;;;;;;5130030;27;20645;-62
2021/12/28 12:51:27;;;;;;;10.20;5.20;;;2.40;99.90;;;;;;5099793;28;20303;-59
2021/12/28 12:53:54;;;;;;;10.70;5.77;;;2.40;99.90;;;;;;5086253;28;20181;-54